Time;durP1;ratioP1;P1;durP2;ratioP2;P2;SDS_P1;SDS_P2;PMS_P1;PMS_P2;Temp;Humidity;BMP_temperature;BMP_pressure;BME280_temperature;BME280_humidity;BME280_pressure;Samples;Min_cycle;Max_cycle;Signal;HPM_P1;HPM_P2
2022/07/01 00:01:23;;;;;;;3.67;2.80;;;;;;;19.32;67.02;99712.22;4995124;28;20085;-86
2022/07/01 00:03:49;;;;;;;2.70;2.50;;;;;;;19.32;66.91;99702.19;4993934;28;20037;-83
2022/07/01 00:06:17;;;;;;;3.47;2.63;;;;;;;19.24;67.76;99693.41;4994146;28;20409;-83
2022/07/01 00:08:43;;;;;;;2.80;2.60;;;;;;;19.32;67.14;99699.47;4978472;28;20034;-83
2022/07/01 00:11:08;;;;;;;2.80;2.40;;;;;;;19.28;66.61;99700.09;4979796;28;20034;-86
2022/07/01 00:13:33;;;;;;;2.58;1.80;;;;;;;19.24;66.65;99693.41;4989593;28;20034;-83
2022/07/01 00:15:59;;;;;;;2.42;2.17;;;;;;;19.23;67.38;99695.28;4960891;28;20041;-86
2022/07/01 00:21:03;;;;;;;5.75;1.80;;;;;;;19.11;66.87;99700.41;5171838;23;20554;-84
2022/07/01 00:23:28;;;;;;;2.65;2.00;;;;;;;19.14;67.07;99696.47;5007461;28;20380;-87
2022/07/01 00:25:53;;;;;;;2.85;1.80;;;;;;;19.23;66.86;99694.44;5001864;28;20023;-85
2022/07/01 00:28:19;;;;;;;2.15;1.63;;;;;;;19.21;66.55;99683.78;5002333;28;20068;-82
2022/07/01 00:30:44;;;;;;;2.08;1.88;;;;;;;19.28;66.36;99700.94;5002741;28;20030;-88
2022/07/01 00:33:09;;;;;;;1.52;1.35;;;;;;;19.21;66.98;99705.47;5004708;28;20022;-85
2022/07/01 00:35:35;;;;;;;2.25;1.80;;;;;;;19.11;66.57;99708.56;5004776;28;20034;-86
2022/07/01 00:38:00;;;;;;;1.75;1.60;;;;;;;19.17;66.31;99710.47;4985390;28;20022;-84
2022/07/01 00:40:26;;;;;;;3.42;1.50;;;;;;;19.32;66.64;99714.91;4999735;28;20032;-87
2022/07/01 00:42:51;;;;;;;1.65;1.40;;;;;;;19.29;66.96;99724.28;4992535;28;20412;-86
2022/07/01 00:45:16;;;;;;;2.10;1.65;;;;;;;19.27;66.57;99729.06;5002185;28;20018;-86
2022/07/01 00:47:42;;;;;;;1.67;1.58;;;;;;;19.28;66.14;99733.47;5010756;28;20029;-86
2022/07/01 00:50:12;;;;;;;3.42;1.85;;;;;;;19.23;66.73;99732.41;4999855;28;20030;-83
2022/07/01 00:52:38;;;;;;;1.60;1.50;;;;;;;19.18;66.92;99725.69;4977436;28;20018;-84
2022/07/01 00:55:06;;;;;;;2.28;1.42;;;;;;;19.31;66.86;99714.09;4977515;28;20123;-88
2022/07/01 00:57:33;;;;;;;2.13;1.58;;;;;;;19.35;66.65;99711.81;4978465;28;20018;-88
2022/07/01 00:59:59;;;;;;;3.47;1.40;;;;;;;19.33;66.21;99705.75;4995080;28;20031;-88
2022/07/01 01:02:24;;;;;;;1.75;1.65;;;;;;;19.24;65.95;99720.50;4974913;28;20045;-86
2022/07/01 01:04:49;;;;;;;1.88;1.48;;;;;;;19.02;65.94;99719.75;4986209;28;20030;-84
2022/07/01 01:07:15;;;;;;;1.35;1.25;;;;;;;19.13;66.32;99739.00;4971730;28;20037;-87
2022/07/01 01:09:40;;;;;;;1.52;1.30;;;;;;;19.06;65.99;99742.72;4975029;28;20022;-84
2022/07/01 01:12:06;;;;;;;1.35;1.25;;;;;;;19.04;65.78;99745.63;4974378;28;20049;-84
2022/07/01 01:14:50;;;;;;;4.72;1.42;;;;;;;19.01;66.85;99748.72;4974813;28;20034;-88
2022/07/01 01:17:17;;;;;;;2.72;1.40;;;;;;;19.05;66.38;99766.28;4991247;28;20022;-83
2022/07/01 01:19:43;;;;;;;1.90;1.70;;;;;;;18.98;67.00;99759.97;4992919;28;20082;-87
2022/07/01 01:22:09;;;;;;;2.70;1.65;;;;;;;18.82;66.06;99763.78;4993632;28;20074;-88
2022/07/01 01:24:36;;;;;;;1.80;1.70;;;;;;;18.90;66.67;99756.53;4976335;28;20117;-84
2022/07/01 01:27:04;;;;;;;3.13;1.60;;;;;;;18.94;66.66;99757.84;4968066;28;20113;-88
2022/07/01 01:29:29;;;;;;;1.48;1.38;;;;;;;18.93;67.23;99740.75;4991825;28;20023;-84
2022/07/01 01:31:54;;;;;;;1.50;1.40;;;;;;;18.96;66.89;99736.81;4975891;28;20113;-87
2022/07/01 01:34:20;;;;;;;1.60;1.50;;;;;;;18.98;66.86;99726.63;4993020;28;20058;-87
2022/07/01 01:36:45;;;;;;;2.30;1.65;;;;;;;18.91;66.65;99723.81;4975801;28;20109;-84
2022/07/01 01:39:16;;;;;;;3.25;1.40;;;;;;;18.93;66.54;99723.66;4974899;28;20034;-86
2022/07/01 01:41:42;;;;;;;1.50;1.40;;;;;;;18.96;66.27;99740.34;4972561;28;20041;-83
2022/07/01 01:44:08;;;;;;;1.75;1.60;;;;;;;18.79;66.71;99747.09;4973581;28;20027;-83
2022/07/01 01:46:34;;;;;;;2.70;1.55;;;;;;;18.90;66.54;99759.25;4973507;28;20027;-83
2022/07/01 01:49:00;;;;;;;1.60;1.50;;;;;;;18.84;66.15;99769.84;4974844;28;20068;-87
2022/07/01 01:51:25;;;;;;;2.30;2.00;;;;;;;18.82;66.69;99769.19;4974697;28;20031;-87
2022/07/01 01:53:50;;;;;;;2.40;1.58;;;;;;;18.83;66.17;99770.88;4976526;28;20041;-87
2022/07/01 01:56:15;;;;;;;2.17;1.67;;;;;;;18.91;66.53;99775.31;4976383;28;20048;-86
2022/07/01 01:58:43;;;;;;;2.28;2.08;;;;;;;18.77;65.89;99757.28;4975002;28;20035;-87
2022/07/01 02:01:10;;;;;;;1.90;1.80;;;;;;;18.77;66.21;99758.13;4990138;28;20034;-87
2022/07/01 02:03:36;;;;;;;3.42;1.90;;;;;;;18.80;66.05;99756.88;4977078;28;20041;-87
2022/07/01 02:06:01;;;;;;;2.40;1.80;;;;;;;18.72;66.14;99762.44;4993027;28;20030;-87
2022/07/01 02:08:27;;;;;;;2.67;1.88;;;;;;;18.68;66.54;99772.00;4976273;28;20038;-87
2022/07/01 02:10:52;;;;;;;2.30;1.95;;;;;;;18.62;66.07;99784.47;4975641;28;20457;-86
2022/07/01 02:13:17;;;;;;;3.65;2.30;;;;;;;18.68;66.40;99775.53;4992079;28;20472;-86
2022/07/01 02:15:43;;;;;;;2.92;1.83;;;;;;;18.65;66.99;99775.94;4992105;28;20138;-84
2022/07/01 02:18:08;;;;;;;2.83;2.20;;;;;;;18.61;67.23;99761.06;4992201;28;20121;-87
2022/07/01 02:20:33;;;;;;;2.97;2.00;;;;;;;18.52;66.58;99756.81;4992594;28;20093;-88
2022/07/01 02:22:59;;;;;;;2.78;1.90;;;;;;;18.50;67.29;99778.69;4992422;28;20446;-85
2022/07/01 02:25:24;;;;;;;3.60;2.20;;;;;;;18.52;66.56;99776.63;4993030;28;20496;-86
2022/07/01 02:27:49;;;;;;;2.47;1.95;;;;;;;18.61;66.54;99777.31;4973938;28;20033;-85
2022/07/01 02:30:15;;;;;;;4.97;2.10;;;;;;;18.57;66.88;99778.75;4974761;28;20037;-87
2022/07/01 02:32:40;;;;;;;2.63;1.73;;;;;;;18.61;66.37;99787.31;4975344;28;20084;-84
2022/07/01 02:35:06;;;;;;;3.17;2.25;;;;;;;18.58;66.65;99798.56;4987902;28;20113;-83
2022/07/01 02:37:33;;;;;;;3.55;2.10;;;;;;;18.59;67.15;99801.06;4988438;28;20050;-84
2022/07/01 02:39:58;;;;;;;2.33;2.05;;;;;;;18.52;67.07;99794.75;4974101;28;20480;-87
2022/07/01 02:42:25;;;;;;;2.47;1.98;;;;;;;18.54;67.40;99804.34;4975033;28;20033;-87
2022/07/01 02:44:51;;;;;;;2.75;1.83;;;;;;;18.52;67.52;99817.25;4974735;28;20022;-86
2022/07/01 02:47:16;;;;;;;3.40;1.90;;;;;;;18.50;67.33;99816.59;4990657;28;20035;-83
2022/07/01 02:49:42;;;;;;;2.17;1.85;;;;;;;18.57;67.00;99819.38;4972111;28;20455;-87
2022/07/01 02:52:07;;;;;;;3.03;1.80;;;;;;;18.66;67.45;99823.66;4975215;28;20175;-83
2022/07/01 02:54:32;;;;;;;2.58;1.73;;;;;;;18.57;67.22;99816.66;4987498;28;20065;-83
2022/07/01 02:56:58;;;;;;;2.25;2.05;;;;;;;18.50;67.27;99813.06;4972052;28;20034;-83
2022/07/01 02:59:23;;;;;;;2.53;2.10;;;;;;;18.42;66.58;99805.03;4973080;28;20031;-88
2022/07/01 03:01:48;;;;;;;3.00;2.20;;;;;;;18.43;66.75;99807.53;4974927;28;20038;-85
2022/07/01 03:04:14;;;;;;;6.57;2.40;;;;;;;18.38;67.63;99809.16;4973401;28;20591;-84
2022/07/01 03:06:40;;;;;;;2.67;2.30;;;;;;;18.40;67.19;99816.06;4970903;28;20117;-84
2022/07/01 03:09:06;;;;;;;2.60;1.92;;;;;;;18.44;67.80;99819.22;4975487;28;20034;-84
2022/07/01 03:11:31;;;;;;;2.08;1.80;;;;;;;18.45;67.33;99824.47;4975446;28;20564;-83
2022/07/01 03:13:56;;;;;;;3.00;1.83;;;;;;;18.44;67.80;99820.06;4975521;28;20073;-85
2022/07/01 03:16:22;;;;;;;3.60;2.05;;;;;;;18.53;67.77;99821.63;4976545;28;20133;-83
2022/07/01 03:18:48;;;;;;;3.85;2.30;;;;;;;18.45;67.32;99821.75;4992190;28;20061;-83
2022/07/01 03:21:13;;;;;;;2.17;1.98;;;;;;;18.57;66.96;99822.09;4974809;28;20117;-84
2022/07/01 03:23:38;;;;;;;2.30;2.10;;;;;;;18.54;67.55;99831.44;4992984;28;20388;-84
2022/07/01 03:26:04;;;;;;;4.03;1.98;;;;;;;18.54;67.38;99842.28;4975901;28;20023;-86
2022/07/01 03:28:31;;;;;;;5.28;2.47;;;;;;;18.55;67.01;99852.06;4977390;28;20385;-83
2022/07/01 03:30:56;;;;;;;2.90;1.83;;;;;;;18.55;66.95;99848.53;4996004;28;20027;-86
2022/07/01 03:33:22;;;;;;;6.07;2.35;;;;;;;18.48;67.26;99847.63;4995115;28;20026;-84
2022/07/01 03:35:47;;;;;;;2.63;2.03;;;;;;;18.45;68.10;99848.00;4978060;28;20033;-86
2022/07/01 03:38:13;;;;;;;2.40;2.17;;;;;;;18.49;67.02;99844.72;4979132;28;20046;-84
2022/07/01 03:40:38;;;;;;;2.47;1.92;;;;;;;18.43;67.32;99845.47;4995221;28;20034;-83
2022/07/01 03:43:04;;;;;;;2.30;2.10;;;;;;;18.39;67.63;99841.47;4996267;28;20030;-87
2022/07/01 03:45:30;;;;;;;5.30;2.38;;;;;;;18.39;67.18;99838.75;4994984;28;20117;-86
2022/07/01 03:47:55;;;;;;;3.72;2.10;;;;;;;18.43;67.13;99831.91;4977859;28;20038;-84
2022/07/01 03:50:22;;;;;;;2.95;2.10;;;;;;;18.46;67.25;99836.16;4991156;28;20050;-84
2022/07/01 03:52:47;;;;;;;2.33;2.10;;;;;;;18.38;67.06;99837.06;4991931;28;20035;-83
2022/07/01 03:55:12;;;;;;;5.10;2.30;;;;;;;18.29;67.65;99835.50;4974786;28;20073;-84
2022/07/01 03:57:38;;;;;;;2.90;1.95;;;;;;;18.22;68.11;99838.16;4991667;28;20045;-86
2022/07/01 04:00:05;;;;;;;2.05;1.85;;;;;;;18.28;67.40;99835.72;4994070;28;20076;-83
2022/07/01 04:02:30;;;;;;;2.08;1.80;;;;;;;18.20;67.73;99839.38;4975100;28;20468;-84
2022/07/01 04:04:55;;;;;;;2.22;2.03;;;;;;;18.09;67.58;99847.97;4975888;28;20391;-86
2022/07/01 04:07:21;;;;;;;2.67;1.92;;;;;;;18.10;68.03;99861.31;4976074;28;20048;-83
2022/07/01 04:09:46;;;;;;;2.17;1.88;;;;;;;18.18;67.79;99853.09;4992347;28;20125;-83
2022/07/01 04:12:12;;;;;;;2.80;2.20;;;;;;;18.18;68.27;99857.66;4978140;28;20029;-84
2022/07/01 04:14:38;;;;;;;2.80;2.20;;;;;;;18.12;68.83;99859.25;4992872;28;20084;-84
2022/07/01 04:17:03;;;;;;;5.25;2.30;;;;;;;18.13;68.09;99860.09;4976207;28;20032;-83
2022/07/01 04:19:29;;;;;;;5.18;2.13;;;;;;;18.17;67.83;99846.00;4973896;28;20477;-84
2022/07/01 04:24:38;;;;;;;3.92;2.08;;;;;;;18.12;68.25;99839.47;4991564;28;20451;-84
2022/07/01 04:27:03;;;;;;;2.90;2.25;;;;;;;18.11;68.27;99854.88;4974665;28;20030;-84
2022/07/01 04:29:29;;;;;;;4.35;2.10;;;;;;;18.08;67.98;99854.44;4973997;28;20037;-83
2022/07/01 04:31:55;;;;;;;3.63;2.00;;;;;;;18.08;68.39;99849.84;4973249;28;20062;-83
2022/07/01 04:34:20;;;;;;;4.15;2.10;;;;;;;18.13;68.23;99836.59;4990424;28;20030;-84
2022/07/01 04:36:46;;;;;;;2.60;2.13;;;;;;;18.15;67.56;99847.22;4990299;28;20041;-84
2022/07/01 04:39:11;;;;;;;3.50;2.25;;;;;;;18.16;68.57;99849.75;4973862;28;20034;-84
2022/07/01 04:44:20;;;;;;;2.08;1.55;;;;;;;18.25;68.12;99829.66;4990984;28;20033;-84
2022/07/01 04:46:46;;;;;;;2.20;1.50;;;;;;;18.26;67.58;99833.19;4989278;28;20113;-83
2022/07/01 04:49:12;;;;;;;2.25;1.40;;;;;;;18.36;68.29;99827.47;4974291;28;20058;-83
2022/07/01 04:51:37;;;;;;;1.70;1.40;;;;;;;18.24;68.02;99819.84;4972805;28;20061;-84
2022/07/01 04:54:06;;;;;;;1.83;1.50;;;;;;;18.25;68.37;99817.97;4973990;28;20038;-83
2022/07/01 04:56:31;;;;;;;;;;;;;;;18.35;67.59;99826.63;4990160;28;20384;-83
2022/07/01 04:58:56;;;;;;;3.30;1.60;;;;;;;18.35;68.16;99829.34;4989681;28;19926;-83
2022/07/01 05:01:22;;;;;;;2.35;1.50;;;;;;;18.40;68.30;99832.31;4973758;28;20033;-84
2022/07/01 05:03:48;;;;;;;2.30;1.42;;;;;;;18.45;68.06;99829.06;4989096;28;20037;-83
2022/07/01 05:06:15;;;;;;;4.25;1.55;;;;;;;18.38;68.14;99825.41;4972745;28;20174;-84
2022/07/01 05:08:41;;;;;;;1.88;1.48;;;;;;;18.42;68.57;99823.97;4974192;28;20125;-83
2022/07/01 05:11:06;;;;;;;1.70;1.40;;;;;;;18.50;67.94;99832.03;4973296;28;20176;-83
2022/07/01 05:13:33;;;;;;;2.30;1.58;;;;;;;18.41;68.46;99833.13;4974061;28;20117;-83
2022/07/01 05:15:58;;;;;;;2.25;1.50;;;;;;;18.42;68.33;99832.94;4973373;28;20018;-83
2022/07/01 05:24:07;;;;;;;2.40;1.40;;;;;;;18.40;68.32;99835.00;4978257;28;20042;-83
2022/07/01 05:26:32;;;;;;;2.75;1.50;;;;;;;18.41;67.91;99822.31;4972384;28;20290;-84
2022/07/01 05:28:58;;;;;;;4.28;1.55;;;;;;;18.47;68.48;99832.41;4965533;28;20076;-83
2022/07/01 05:31:23;;;;;;;3.08;1.40;;;;;;;18.60;68.92;99834.41;4989151;28;20496;-83
2022/07/01 05:33:49;;;;;;;6.95;1.40;;;;;;;18.65;69.51;99826.56;4989007;28;20033;-83
2022/07/01 05:36:15;;;;;;;2.85;1.48;;;;;;;18.60;68.53;99829.81;4972271;28;20061;-83
2022/07/01 05:38:40;;;;;;;3.10;1.50;;;;;;;18.56;69.12;99842.91;4972260;28;20353;-83
2022/07/01 05:41:06;;;;;;;2.03;1.40;;;;;;;18.60;68.26;99840.66;4973030;28;20061;-83
2022/07/01 05:43:31;;;;;;;3.20;1.60;;;;;;;18.72;69.32;99852.69;4983959;28;20053;-83
2022/07/01 05:45:57;;;;;;;2.97;1.40;;;;;;;18.70;68.54;99848.50;4983761;28;20034;-82
2022/07/01 05:48:22;;;;;;;2.22;1.40;;;;;;;18.67;68.35;99849.72;4967452;28;20061;-82
2022/07/01 05:50:48;;;;;;;1.42;1.23;;;;;;;18.96;69.16;99848.78;4967474;28;20032;-84
2022/07/01 05:53:13;;;;;;;2.83;1.35;;;;;;;18.78;68.48;99865.47;4967587;28;20392;-82
2022/07/01 05:55:39;;;;;;;2.13;1.80;;;;;;;18.69;68.12;99873.91;4966844;28;20097;-82
2022/07/01 05:58:06;;;;;;;4.18;1.42;;;;;;;18.76;69.04;99877.53;4966482;28;20539;-82
2022/07/01 06:00:31;;;;;;;3.70;1.67;;;;;;;18.89;69.83;99874.94;4965838;28;20400;-82
2022/07/01 06:02:57;;;;;;;2.33;1.50;;;;;;;18.91;68.67;99872.88;4966198;28;20030;-81
2022/07/01 06:05:22;;;;;;;1.83;1.25;;;;;;;18.88;68.11;99874.09;4981995;28;20877;-83
2022/07/01 06:07:48;;;;;;;2.60;1.50;;;;;;;18.87;69.21;99875.13;4966878;28;20552;-83
2022/07/01 06:10:13;;;;;;;3.05;1.73;;;;;;;18.86;68.71;99868.03;4983171;28;20034;-83
2022/07/01 06:12:40;;;;;;;3.22;1.65;;;;;;;18.85;68.98;99873.66;4967252;28;20060;-83
2022/07/01 06:15:07;;;;;;;1.70;1.35;;;;;;;18.85;68.85;99881.78;4967333;28;20076;-82
2022/07/01 06:17:34;;;;;;;2.35;1.70;;;;;;;18.80;68.66;99878.81;4982462;28;20401;-83
2022/07/01 06:19:59;;;;;;;3.42;1.75;;;;;;;18.87;68.67;99872.44;5002207;28;20555;-83
2022/07/01 06:22:24;;;;;;;3.05;1.40;;;;;;;18.82;69.06;99871.34;4966895;28;20473;-82
2022/07/01 06:24:49;;;;;;;2.67;1.65;;;;;;;18.89;69.04;99874.94;4983474;28;20026;-83
2022/07/01 06:27:15;;;;;;;2.53;1.40;;;;;;;18.81;69.11;99875.91;4981718;28;20113;-83
2022/07/01 06:29:40;;;;;;;2.67;1.73;;;;;;;18.74;68.39;99866.88;4982880;28;20576;-82
2022/07/01 06:32:07;;;;;;;3.55;1.80;;;;;;;18.71;68.82;99877.28;4966092;28;20105;-82
2022/07/01 06:34:32;;;;;;;2.03;1.67;;;;;;;18.65;68.67;99884.31;4982916;28;20065;-82
2022/07/01 06:37:00;;;;;;;5.03;2.38;;;;;;;18.86;69.17;99880.75;4982216;28;20046;-82
2022/07/01 06:39:26;;;;;;;2.33;1.77;;;;;;;18.91;68.34;99877.47;4983426;28;20455;-83
2022/07/01 06:41:51;;;;;;;2.53;2.20;;;;;;;18.89;69.04;99880.38;4982292;28;20037;-82
2022/07/01 06:44:17;;;;;;;3.33;2.30;;;;;;;18.78;68.48;99880.88;4966549;28;20495;-83
2022/07/01 06:46:42;;;;;;;2.45;2.20;;;;;;;18.68;68.39;99874.94;4982345;28;20022;-82
2022/07/01 06:49:07;;;;;;;3.40;2.10;;;;;;;18.80;69.29;99876.94;4966311;28;20125;-83
2022/07/01 06:51:33;;;;;;;3.28;2.30;;;;;;;18.78;68.25;99880.88;4982006;28;20096;-83
2022/07/01 06:53:58;;;;;;;3.80;2.60;;;;;;;18.75;68.10;99902.94;4966517;28;20485;-82
2022/07/01 06:56:23;;;;;;;3.97;2.20;;;;;;;18.71;68.54;99904.38;4982184;28;20030;-82
2022/07/01 06:58:49;;;;;;;3.22;2.22;;;;;;;18.51;68.74;99907.66;4966269;28;20041;-82
2022/07/01 07:01:14;;;;;;;4.30;2.53;;;;;;;18.46;68.33;99910.09;4982922;28;20062;-82
2022/07/01 07:03:39;;;;;;;3.10;2.80;;;;;;;18.37;69.14;99907.66;4966141;28;20523;-82
2022/07/01 07:06:05;;;;;;;3.15;2.50;;;;;;;18.62;69.12;99906.34;4965896;28;20069;-83
2022/07/01 07:08:31;;;;;;;3.22;2.70;;;;;;;18.70;69.35;99908.09;4969769;28;20076;-82
2022/07/01 07:10:56;;;;;;;4.30;2.80;;;;;;;18.77;69.15;99912.56;4972333;28;20077;-84
2022/07/01 07:13:22;;;;;;;2.78;2.40;;;;;;;18.79;69.15;99917.78;4977804;28;20019;-83
2022/07/01 07:15:47;;;;;;;4.10;3.00;;;;;;;18.60;68.12;99916.50;4972036;28;20473;-83
2022/07/01 07:18:12;;;;;;;4.40;2.70;;;;;;;18.66;68.58;99913.06;4987802;28;20169;-83
2022/07/01 07:20:38;;;;;;;4.22;2.92;;;;;;;18.67;68.45;99916.63;4987700;28;20046;-83
2022/07/01 07:23:04;;;;;;;2.47;2.20;;;;;;;18.75;69.50;99921.91;4970462;28;20042;-83
2022/07/01 07:25:29;;;;;;;3.72;2.60;;;;;;;18.58;68.48;99924.00;5003865;28;20038;-83
2022/07/01 07:27:55;;;;;;;3.20;2.40;;;;;;;18.37;69.03;99929.34;4970245;28;20030;-83
2022/07/01 07:30:20;;;;;;;3.40;2.60;;;;;;;18.37;69.07;99932.88;4971265;28;20034;-86
2022/07/01 07:32:46;;;;;;;3.60;2.20;;;;;;;18.39;69.20;99932.69;4985383;28;20025;-83
2022/07/01 07:35:12;;;;;;;3.05;2.20;;;;;;;18.51;68.94;99940.16;4986049;28;20049;-86
2022/07/01 07:37:38;;;;;;;6.55;2.20;;;;;;;18.61;70.06;99934.44;4969948;28;20121;-83
2022/07/01 07:40:06;;;;;;;3.13;2.10;;;;;;;18.62;69.77;99935.31;4986348;28;20030;-86
2022/07/01 07:42:32;;;;;;;3.20;1.80;;;;;;;18.86;69.92;99937.66;4986253;28;20026;-86
2022/07/01 07:44:57;;;;;;;3.13;2.03;;;;;;;18.79;68.71;99944.88;4985402;28;20653;-86
2022/07/01 07:47:22;;;;;;;2.90;2.10;;;;;;;18.70;68.71;99924.34;4971484;28;20472;-84
2022/07/01 07:49:48;;;;;;;3.38;2.17;;;;;;;18.60;68.23;99926.50;4988510;28;20026;-85
2022/07/01 07:52:13;;;;;;;5.35;2.30;;;;;;;18.58;68.43;99929.41;4987720;28;20033;-84
2022/07/01 07:54:38;;;;;;;2.25;1.90;;;;;;;18.67;68.17;99927.44;4988481;28;20787;-84
2022/07/01 07:57:05;;;;;;;2.15;1.90;;;;;;;18.68;68.00;99929.97;4991046;28;20500;-84
2022/07/01 07:59:30;;;;;;;5.28;2.13;;;;;;;18.79;69.18;99932.19;4987912;28;20157;-85
2022/07/01 08:01:56;;;;;;;3.42;2.55;;;;;;;18.77;68.57;99934.25;4969187;28;20133;-84
2022/07/01 08:04:21;;;;;;;3.13;2.15;;;;;;;18.81;68.73;99938.25;4985861;28;20132;-86
2022/07/01 08:06:46;;;;;;;3.33;1.92;;;;;;;18.90;68.95;99941.66;4984148;28;20030;-87
2022/07/01 08:09:11;;;;;;;3.10;2.45;;;;;;;18.92;67.55;99945.06;4984758;28;20477;-88
2022/07/01 08:11:37;;;;;;;2.85;2.15;;;;;;;18.99;68.00;99935.13;4968112;28;20038;-86
2022/07/01 08:14:02;;;;;;;3.67;2.58;;;;;;;18.76;66.39;99945.28;4968169;28;20033;-84
2022/07/01 08:16:28;;;;;;;5.55;2.65;;;;;;;18.90;67.20;99935.41;4968662;28;20508;-85
2022/07/01 08:21:29;;;;;;;2.42;2.22;;;;;;;18.97;67.38;99941.78;5148831;22;20050;-86
2022/07/01 08:23:54;;;;;;;4.28;2.10;;;;;;;19.00;67.54;99944.09;4959007;28;20030;-87
2022/07/01 08:26:20;;;;;;;3.28;2.15;;;;;;;18.97;67.00;99939.91;4972434;28;20480;-88
2022/07/01 08:28:45;;;;;;;2.45;2.00;;;;;;;18.86;67.03;99954.75;4976626;28;20041;-86
2022/07/01 08:31:10;;;;;;;2.28;2.05;;;;;;;19.05;67.51;99961.47;4960596;28;20557;-87
2022/07/01 08:33:37;;;;;;;2.72;2.10;;;;;;;19.08;67.85;99955.66;4978956;28;20435;-87
2022/07/01 08:36:04;;;;;;;2.30;1.75;;;;;;;19.12;66.32;99961.53;4958492;28;20029;-87
2022/07/01 08:38:29;;;;;;;2.60;1.83;;;;;;;18.94;65.83;99953.00;4955955;28;20105;-87
2022/07/01 08:40:54;;;;;;;2.17;1.52;;;;;;;18.87;66.40;99956.44;4965024;28;20089;-84
2022/07/01 08:43:20;;;;;;;2.28;1.52;;;;;;;18.85;65.76;99955.78;4955410;28;20043;-87
2022/07/01 08:45:45;;;;;;;2.58;1.55;;;;;;;18.75;65.63;99954.44;4959300;28;20088;-86
2022/07/01 08:48:10;;;;;;;3.03;1.42;;;;;;;18.69;65.46;99961.44;4962409;28;20116;-83
2022/07/01 08:50:38;;;;;;;1.42;1.33;;;;;;;18.64;65.30;99965.75;4963576;28;20082;-84
2022/07/01 08:53:04;;;;;;;0.90;0.80;;;;;;;18.51;64.89;99979.94;4973154;28;20197;-86
2022/07/01 08:55:30;;;;;;;1.27;0.80;;;;;;;18.49;64.54;99980.16;4973710;28;20480;-87
2022/07/01 08:57:56;;;;;;;1.00;0.90;;;;;;;18.67;65.62;99977.06;4959017;28;20038;-86
2022/07/01 09:00:21;;;;;;;1.98;1.20;;;;;;;18.93;66.59;99979.25;4955060;28;20038;-86
2022/07/01 09:02:55;;;;;;;2.15;1.10;;;;;;;18.98;66.50;99978.69;4957850;28;20118;-84
2022/07/01 09:05:22;;;;;;;1.52;1.00;;;;;;;19.02;64.65;99969.13;4974566;28;20026;-87
2022/07/01 09:07:49;;;;;;;1.60;1.10;;;;;;;18.98;65.17;99970.56;4956976;28;20085;-86
2022/07/01 09:10:19;;;;;;;2.22;0.95;;;;;;;19.07;65.73;99975.66;4950914;28;20031;-87
2022/07/01 09:12:48;;;;;;;2.05;0.80;;;;;;;18.94;63.97;99986.34;4955478;28;20053;-88
2022/07/01 09:15:24;;;;;;;2.08;0.93;;;;;;;18.85;64.05;99991.03;4975999;28;20029;-87
2022/07/01 09:17:50;;;;;;;2.78;1.00;;;;;;;18.96;65.20;99994.31;4983978;28;20349;-87
2022/07/01 09:20:24;;;;;;;1.20;0.73;;;;;;;18.98;64.23;100008.50;4990507;28;20089;-84
2022/07/01 09:22:59;;;;;;;1.42;0.55;;;;;;;18.98;63.93;100005.78;4987847;28;20093;-84
2022/07/01 09:25:37;;;;;;;1.80;1.00;;;;;;;19.09;63.63;100005.28;4977374;28;20058;-84
2022/07/01 09:28:07;;;;;;;2.90;0.93;;;;;;;19.16;64.40;100012.47;4964634;28;20496;-86
2022/07/01 09:30:33;;;;;;;1.58;0.73;;;;;;;19.12;64.05;100003.03;4980704;28;20038;-87
2022/07/01 09:33:28;;;;;;;1.20;0.60;;;;;;;19.15;63.64;100008.06;4966894;28;20492;-87
2022/07/01 09:35:55;;;;;;;0.90;0.60;;;;;;;19.05;63.91;100012.97;4969763;28;20042;-86
2022/07/01 09:38:23;;;;;;;2.40;0.60;;;;;;;18.88;62.03;100016.91;4965783;28;20042;-87
2022/07/01 09:41:01;;;;;;;1.63;0.52;;;;;;;18.83;61.75;100028.31;4957537;28;20114;-88
2022/07/01 09:43:28;;;;;;;1.88;0.63;;;;;;;18.95;62.12;100025.16;4981178;28;20480;-84
2022/07/01 09:45:57;;;;;;;1.73;0.63;;;;;;;18.89;61.79;100026.72;4982254;28;20030;-84
2022/07/01 09:48:26;;;;;;;0.77;0.40;;;;;;;18.90;62.17;100020.25;4982529;28;20061;-84
2022/07/01 09:50:52;;;;;;;2.47;0.70;;;;;;;18.91;62.82;100021.94;4972087;28;20540;-87
2022/07/01 09:53:18;;;;;;;1.05;0.60;;;;;;;18.99;63.28;100011.03;4978328;28;20031;-84
2022/07/01 09:55:44;;;;;;;3.33;0.63;;;;;;;18.80;61.29;100017.03;4967830;28;20066;-84
2022/07/01 09:58:09;;;;;;;1.85;0.52;;;;;;;18.71;59.91;100023.56;4966366;28;20875;-84
2022/07/01 10:00:36;;;;;;;1.17;0.47;;;;;;;18.55;59.83;100028.16;4962574;28;20085;-85
2022/07/01 10:03:06;;;;;;;1.55;0.50;;;;;;;18.66;61.88;100026.00;4988545;28;20033;-85
2022/07/01 10:05:36;;;;;;;3.00;0.75;;;;;;;18.68;61.21;100035.63;4960373;28;20044;-87
2022/07/01 10:08:17;;;;;;;0.85;0.40;;;;;;;18.82;61.41;100029.34;4964942;28;20049;-86
2022/07/01 10:10:56;;;;;;;1.30;0.57;;;;;;;18.92;61.59;100022.78;4963504;28;20104;-85
2022/07/01 10:13:24;;;;;;;1.08;0.60;;;;;;;18.94;62.38;100021.59;4987179;28;20081;-85
2022/07/01 10:15:49;;;;;;;2.47;0.77;;;;;;;19.00;62.21;100018.13;4981779;28;20779;-85
2022/07/01 10:18:22;;;;;;;0.55;0.50;;;;;;;19.03;62.45;100019.59;4980497;28;20038;-85
2022/07/01 10:20:48;;;;;;;1.95;0.60;;;;;;;19.01;61.57;100021.66;4963383;28;20057;-88
2022/07/01 10:23:14;;;;;;;1.27;0.57;;;;;;;19.04;61.68;100022.13;4980704;28;20385;-84
2022/07/01 10:25:43;;;;;;;2.33;0.77;;;;;;;19.08;62.75;100030.72;4963508;28;20026;-87
2022/07/01 10:28:12;;;;;;;1.05;0.60;;;;;;;19.11;62.43;100024.91;4960622;28;20221;-85
2022/07/01 10:30:50;;;;;;;1.02;0.60;;;;;;;19.15;61.86;100020.78;4980111;28;20109;-84
2022/07/01 10:33:37;;;;;;;2.80;0.70;;;;;;;19.29;61.89;100028.03;4977669;28;20082;-84
2022/07/01 10:36:16;;;;;;;2.95;0.73;;;;;;;19.27;62.27;100029.25;4964863;28;20030;-84
2022/07/01 10:39:00;;;;;;;1.63;0.52;;;;;;;19.16;62.23;100030.59;4976617;28;20027;-84
2022/07/01 10:41:27;;;;;;;2.25;0.63;;;;;;;19.08;61.53;100026.13;4981112;28;20058;-84
2022/07/01 10:43:56;;;;;;;2.40;0.52;;;;;;;19.17;63.02;100029.56;4959172;28;20582;-84
2022/07/01 10:46:47;;;;;;;1.70;0.80;;;;;;;19.17;61.92;100033.13;4973545;28;20055;-84
2022/07/01 10:49:18;;;;;;;0.90;0.60;;;;;;;19.24;62.31;100035.06;4970044;28;20033;-84
2022/07/01 10:51:52;;;;;;;0.95;0.60;;;;;;;19.27;61.94;100023.81;4983084;28;20030;-84
2022/07/01 10:54:36;;;;;;;1.88;0.50;;;;;;;19.30;60.35;100037.84;4977419;28;20023;-87
2022/07/01 10:57:16;;;;;;;1.08;0.60;;;;;;;19.30;60.10;100026.16;4982784;28;20050;-84
2022/07/01 11:00:00;;;;;;;1.65;0.50;;;;;;;19.39;62.05;100027.69;4981558;28;20161;-86
2022/07/01 11:02:30;;;;;;;2.17;0.70;;;;;;;19.36;61.29;100026.22;4981114;28;20039;-84
2022/07/01 11:04:58;;;;;;;2.38;0.60;;;;;;;19.39;61.37;100028.56;4981853;28;20053;-85
2022/07/01 11:07:26;;;;;;;1.00;0.60;;;;;;;19.47;62.94;100023.00;4965437;28;20080;-85
2022/07/01 11:09:51;;;;;;;0.90;0.50;;;;;;;19.47;62.70;100017.59;4982170;28;20031;-84
2022/07/01 11:12:17;;;;;;;1.45;0.70;;;;;;;19.48;61.11;100024.69;4965987;28;20308;-87
2022/07/01 11:14:43;;;;;;;0.98;0.55;;;;;;;19.48;62.19;100027.41;4964116;28;20034;-87
2022/07/01 11:17:10;;;;;;;1.17;0.50;;;;;;;19.48;60.55;100018.44;4977486;28;20037;-84
2022/07/01 11:19:35;;;;;;;0.95;0.60;;;;;;;19.47;61.14;100014.88;4978560;28;20058;-84
2022/07/01 11:22:03;;;;;;;1.38;0.43;;;;;;;19.49;61.27;100015.53;4968447;28;20058;-84
2022/07/01 11:24:28;;;;;;;1.10;0.55;;;;;;;19.42;59.78;100013.78;4971477;28;20477;-88
2022/07/01 11:27:07;;;;;;;2.40;0.70;;;;;;;19.51;61.16;100007.19;4964831;28;20066;-86
2022/07/01 11:29:32;;;;;;;;;;;;;;;19.50;60.31;100016.38;4963934;28;20031;-87
2022/07/01 11:31:58;;;;;;;1.05;0.50;;;;;;;19.60;61.11;100011.47;4967144;28;20423;-83
2022/07/01 11:34:27;;;;;;;0.93;0.50;;;;;;;19.64;61.69;100014.63;4986313;28;20088;-90
2022/07/01 11:39:36;;;;;;;1.08;0.60;;;;;;;19.76;60.78;100013.91;4981771;28;20102;-84
2022/07/01 11:42:06;;;;;;;1.40;0.57;;;;;;;19.74;61.58;100010.56;4983305;28;20023;-85
2022/07/01 11:44:35;;;;;;;1.42;0.65;;;;;;;19.65;59.86;100017.16;4984565;28;20035;-85
2022/07/01 11:47:01;;;;;;;0.30;0.30;;;;;;;19.55;59.46;100015.81;4988024;28;20473;-86
2022/07/01 11:49:27;;;;;;;1.08;0.55;;;;;;;19.68;61.44;100013.22;4984263;28;20101;-86